Sule Skerry, United Kingdom
Current Conditions -  °F | °C
As of 1:20 PM on Friday 28 Nov 2014 (Local Time) from EGPA Reporting Station
Light Rain Light Rain  
Wind Chill: 50°   Ceiling: 1000
Heat Index: 50°   Visibility: 4mi
Dew Point: 46°   Wind: 18mph
Humidity: 87%   Direction: 140°SE
Pressure: 29.88"   Gusts: NA
Location:  59.08°N, 4.4°W
Report Text: EGPA 281320Z 14016KT 090V160 7000 -RA SCT006 BKN010 BKN014 10/08 Q1012
Loading
Personal Weather Stations






























Interactive Weather Map New forecast layout! Learn more

10-Day Weather Forecast

Advertisements
Track Severe Weather on mobile